Terminal Aerodrome Forecast
Issued by NWS

Home | Current Version | Previous Version | Text Only | Print | Product List | Glossary On
Versions: 1 2 3 4 5 6 7 8 9 10 11 12 13 14 15 16 17 18 19 20 21 22 23 24 25 26 27 28 29 30 31
000
FTUS42 KRAH 261726
TAFRWI
TAF
KRWI 261726Z 2618/2718 01009KT P6SM OVC012
     FM270100 01004KT P6SM SCT020
      TEMPO 2707/2711 1 1/2SM BR BKN002
     FM271500 31010KT P6SM SCT040=

USA.gov is the U.S. government's official web portal to all federal, state and local government web resources and services.